Time;durP1;ratioP1;P1;durP2;ratioP2;P2;SDS_P1;SDS_P2;PMS_P1;PMS_P2;Temp;Humidity;BMP_temperature;BMP_pressure;BME280_temperature;BME280_humidity;BME280_pressure;Samples;Min_cycle;Max_cycle;Signal;HPM_P1;HPM_P2
2022/10/03 00:00:28;;;;;;;14.10;2.47;;;;;;;10.34;100.00;101797.06;4977658;28;20193;-81
2022/10/03 00:03:19;;;;;;;15.65;2.65;;;;;;;10.37;100.00;101801.50;4988358;28;20288;-80
2022/10/03 00:06:14;;;;;;;18.48;2.80;;;;;;;10.34;100.00;101809.59;4997656;28;20299;-81
2022/10/03 00:09:13;;;;;;;12.57;2.25;;;;;;;10.41;100.00;101808.56;5003054;28;20276;-81
2022/10/03 00:11:45;;;;;;;18.38;3.10;;;;;;;10.34;100.00;101814.94;4995126;28;20206;-81
2022/10/03 00:14:30;;;;;;;20.25;3.60;;;;;;;10.26;100.00;101810.59;4978331;28;20639;-81
2022/10/03 00:17:08;;;;;;;17.75;2.75;;;;;;;10.28;100.00;101815.94;4995082;28;20651;-81
2022/10/03 00:19:39;;;;;;;19.05;2.88;;;;;;;10.28;100.00;101822.16;4978482;28;20598;-81
2022/10/03 00:22:08;;;;;;;19.20;2.72;;;;;;;10.28;100.00;101815.94;4977594;28;20614;-81
2022/10/03 00:24:37;;;;;;;18.50;3.22;;;;;;;10.30;100.00;101816.81;4979053;28;20197;-81
2022/10/03 00:27:26;;;;;;;26.45;3.20;;;;;;;10.25;100.00;101816.84;4978366;28;20205;-81
2022/10/03 00:30:00;;;;;;;18.13;2.53;;;;;;;10.30;100.00;101811.47;4977004;28;20269;-82
2022/10/03 00:32:49;;;;;;;17.52;3.00;;;;;;;10.27;100.00;101812.34;4961901;28;20223;-81
2022/10/03 00:35:30;;;;;;;15.88;2.80;;;;;;;10.26;100.00;101810.59;4961541;28;20526;-80
2022/10/03 00:38:18;;;;;;;12.40;2.88;;;;;;;10.25;100.00;101808.81;4981401;28;20268;-81
2022/10/03 00:41:08;;;;;;;13.20;2.70;;;;;;;10.26;100.00;101815.09;4984077;28;20206;-81
2022/10/03 00:43:58;;;;;;;23.88;3.15;;;;;;;10.30;100.00;101815.03;4977206;28;20225;-80
2022/10/03 00:46:52;;;;;;;17.80;3.08;;;;;;;10.21;100.00;101825.00;4996278;28;20669;-81
2022/10/03 00:49:55;;;;;;;15.88;2.95;;;;;;;10.25;100.00;101832.06;4993069;28;20198;-80
2022/10/03 00:52:46;;;;;;;23.13;3.67;;;;;;;10.21;100.00;101825.91;4991543;28;20193;-81
2022/10/03 00:55:14;;;;;;;17.75;2.70;;;;;;;10.29;100.00;101833.78;4977441;28;20175;-80
2022/10/03 00:57:52;;;;;;;15.38;3.47;;;;;;;10.21;100.00;101833.94;4976618;28;20209;-81
2022/10/03 01:00:25;;;;;;;20.35;3.20;;;;;;;10.25;100.00;101827.56;4976787;28;20213;-82
2022/10/03 01:02:51;;;;;;;19.60;3.53;;;;;;;10.22;100.00;101833.00;4995328;28;20281;-80
2022/10/03 01:05:32;;;;;;;17.67;3.28;;;;;;;10.15;100.00;101836.72;4993787;28;20312;-81
2022/10/03 01:08:10;;;;;;;19.63;3.45;;;;;;;10.12;100.00;101844.81;4996628;28;20189;-81
2022/10/03 01:10:52;;;;;;;21.00;2.80;;;;;;;10.08;100.00;101844.00;4997201;28;20348;-81
2022/10/03 01:13:40;;;;;;;19.58;3.35;;;;;;;10.05;100.00;101844.03;4997365;28;20193;-81
2022/10/03 01:16:41;;;;;;;17.33;3.08;;;;;;;10.07;100.00;101841.34;4995947;28;20281;-81
2022/10/03 01:19:48;;;;;;;23.60;3.42;;;;;;;10.04;100.00;101853.00;4995968;28;20589;-81
2022/10/03 01:22:44;;;;;;;18.35;2.95;;;;;;;9.97;100.00;101858.50;4973683;28;20181;-81
2022/10/03 01:25:34;;;;;;;22.20;3.00;;;;;;;10.04;100.00;101858.38;4960592;28;20233;-82
2022/10/03 01:30:50;;;;;;;24.77;3.95;;;;;;;10.08;100.00;101864.56;4986805;28;20206;-82
2022/10/03 01:33:23;;;;;;;21.63;2.92;;;;;;;10.03;100.00;101861.94;4975232;28;20186;-82
2022/10/03 01:36:10;;;;;;;14.57;2.75;;;;;;;9.97;100.00;101864.75;4995086;28;20189;-82
2022/10/03 01:38:40;;;;;;;18.08;2.88;;;;;;;9.94;100.00;101871.94;4993273;28;20667;-81
2022/10/03 01:41:58;;;;;;;15.45;2.67;;;;;;;9.97;100.00;101877.25;4977873;28;20308;-81
2022/10/03 01:44:29;;;;;;;17.23;3.45;;;;;;;9.94;100.00;101878.19;4940581;28;20660;-81
2022/10/03 01:47:14;;;;;;;23.30;3.63;;;;;;;9.88;100.00;101880.97;4992850;28;20303;-82
2022/10/03 01:49:50;;;;;;;19.63;3.25;;;;;;;9.89;100.00;101882.75;4993699;28;20706;-82
2022/10/03 01:52:19;;;;;;;19.38;3.47;;;;;;;9.81;100.00;101885.56;4977842;28;20189;-81
2022/10/03 01:55:09;;;;;;;24.20;3.90;;;;;;;9.87;100.00;101879.22;4985504;28;20250;-81
2022/10/03 01:57:52;;;;;;;14.77;2.65;;;;;;;9.88;100.00;101887.22;4978825;28;20193;-81
2022/10/03 02:00:24;;;;;;;18.92;3.47;;;;;;;9.85;100.00;101897.97;4977984;28;20361;-82
2022/10/03 02:02:56;;;;;;;16.98;3.33;;;;;;;9.85;100.00;101906.00;4999771;28;20246;-82
2022/10/03 02:05:40;;;;;;;23.52;3.50;;;;;;;9.87;100.00;101901.50;4994675;28;20301;-82
2022/10/03 02:08:21;;;;;;;23.42;3.20;;;;;;;9.82;100.00;101905.19;4983644;28;20185;-82
2022/10/03 02:11:07;;;;;;;16.05;2.97;;;;;;;9.80;100.00;101897.19;4997406;28;20247;-82
2022/10/03 02:13:58;;;;;;;18.95;3.08;;;;;;;9.85;100.00;101907.81;4987570;28;20266;-82
2022/10/03 02:16:43;;;;;;;21.00;2.97;;;;;;;9.75;100.00;101900.84;4981443;28;20221;-82
2022/10/03 02:19:21;;;;;;;13.52;3.13;;;;;;;9.74;100.00;101908.00;4961151;28;20166;-82
2022/10/03 02:21:51;;;;;;;21.70;3.92;;;;;;;9.83;100.00;101912.31;4978479;28;20659;-82
2022/10/03 02:24:34;;;;;;;20.70;3.40;;;;;;;9.77;100.00;101913.28;4976863;28;20178;-81
2022/10/03 02:27:15;;;;;;;17.33;2.95;;;;;;;9.78;100.00;101920.41;5012007;28;20303;-81
2022/10/03 02:29:40;;;;;;;19.83;2.90;;;;;;;9.75;100.00;101919.56;4993349;28;20205;-82
2022/10/03 02:32:32;;;;;;;17.95;2.78;;;;;;;9.75;100.00;101920.47;4990771;28;20193;-81
2022/10/03 02:35:08;;;;;;;27.42;3.55;;;;;;;9.69;100.00;101923.25;4996627;28;20249;-82
2022/10/03 02:37:59;;;;;;;18.75;2.90;;;;;;;9.77;100.00;101936.50;4982698;28;20225;-82
2022/10/03 02:40:55;;;;;;;20.48;3.10;;;;;;;9.71;100.00;101934.81;4977341;28;20613;-81
2022/10/03 02:43:42;;;;;;;22.70;3.35;;;;;;;9.67;100.00;101923.28;4977480;28;20663;-81
2022/10/03 02:46:30;;;;;;;22.90;3.20;;;;;;;9.66;100.00;101936.66;4993649;28;20389;-81
2022/10/03 02:49:17;;;;;;;22.20;2.70;;;;;;;9.74;100.00;101934.75;4993750;28;20289;-81
2022/10/03 02:52:05;;;;;;;21.42;3.15;;;;;;;9.75;100.00;101941.88;4981804;28;20686;-81
2022/10/03 02:54:49;;;;;;;19.13;2.78;;;;;;;9.76;100.00;101951.66;4987412;28;20193;-81
2022/10/03 02:57:52;;;;;;;21.70;3.35;;;;;;;9.73;100.00;101948.16;4996249;28;20181;-82
2022/10/03 03:00:59;;;;;;;21.67;2.92;;;;;;;9.68;100.00;101953.59;4992345;28;20264;-82
2022/10/03 03:03:41;;;;;;;19.35;3.22;;;;;;;9.72;100.00;101949.94;4979353;28;20189;-82
2022/10/03 03:06:36;;;;;;;28.33;3.70;;;;;;;9.65;100.00;101946.50;4991123;28;20237;-81
2022/10/03 03:09:13;;;;;;;22.85;3.15;;;;;;;9.67;100.00;101957.19;4983712;28;20666;-80
2022/10/03 03:12:08;;;;;;;16.45;2.67;;;;;;;9.73;100.00;101957.09;4978434;28;20296;-81
2022/10/03 03:14:46;;;;;;;20.33;3.30;;;;;;;9.66;100.00;101953.63;4992997;28;20204;-80
2022/10/03 03:17:23;;;;;;;21.63;3.47;;;;;;;9.67;100.00;101960.72;4978613;28;20555;-80
2022/10/03 03:20:16;;;;;;;15.48;2.25;;;;;;;9.72;100.00;101966.00;4977784;28;20616;-80
2022/10/03 03:22:44;;;;;;;18.17;2.65;;;;;;;9.68;100.00;101961.59;4974548;28;20648;-81
2022/10/03 03:25:50;;;;;;;13.20;3.50;;;;;;;9.72;100.00;101960.66;4995381;28;20565;-80
2022/10/03 03:28:31;;;;;;;17.40;2.90;;;;;;;9.68;100.00;101961.59;5007904;28;20267;-80
2022/10/03 03:31:11;;;;;;;19.10;2.80;;;;;;;9.72;100.00;101967.81;4990419;28;20217;-80
2022/10/03 03:34:01;;;;;;;21.35;3.35;;;;;;;9.69;100.00;101966.94;4993425;28;20234;-80
2022/10/03 03:36:42;;;;;;;23.35;3.25;;;;;;;9.70;100.00;101962.47;4993998;28;20677;-80
2022/10/03 03:39:26;;;;;;;12.20;2.60;;;;;;;9.65;100.00;101967.91;4986832;28;20243;-81
2022/10/03 03:42:13;;;;;;;21.95;3.40;;;;;;;9.67;100.00;101981.25;4975462;28;20249;-80
2022/10/03 03:45:04;;;;;;;24.98;3.72;;;;;;;9.60;100.00;101984.91;4983557;28;20686;-80
2022/10/03 03:48:03;;;;;;;17.75;3.20;;;;;;;9.61;100.00;101990.25;4981370;28;20201;-80
2022/10/03 03:51:10;;;;;;;19.80;3.95;;;;;;;9.59;100.00;101991.19;4963082;28;20205;-80
2022/10/03 03:54:07;;;;;;;24.35;3.70;;;;;;;9.59;100.00;101983.16;4955921;28;20600;-80
2022/10/03 03:56:48;;;;;;;23.33;3.38;;;;;;;9.53;100.00;101993.97;4981876;28;20624;-81
2022/10/03 03:59:19;;;;;;;17.55;3.58;;;;;;;9.61;100.00;101992.06;4981766;28;20192;-80
2022/10/03 04:02:16;;;;;;;22.30;3.95;;;;;;;9.54;100.00;101985.91;4994121;28;20201;-80
2022/10/03 04:05:17;;;;;;;21.92;3.40;;;;;;;9.53;100.00;101992.16;5001467;28;20605;-80
2022/10/03 04:08:09;;;;;;;20.75;3.65;;;;;;;9.49;100.00;101986.00;4973131;28;20632;-81
2022/10/03 04:11:10;;;;;;;23.73;4.28;;;;;;;9.46;100.00;101993.16;4993435;28;20225;-82
2022/10/03 04:13:46;;;;;;;23.17;3.90;;;;;;;9.44;100.00;101995.84;4975533;28;20196;-80
2022/10/03 04:19:33;;;;;;;16.33;3.50;;;;;;;9.47;100.00;101990.47;4984524;28;20200;-80
2022/10/03 04:22:23;;;;;;;19.73;3.03;;;;;;;9.47;100.00;101994.97;4991685;28;20222;-80
2022/10/03 04:25:07;;;;;;;20.85;3.15;;;;;;;9.35;100.00;101979.94;4987341;28;20686;-83
2022/10/03 04:28:06;;;;;;;27.13;3.63;;;;;;;9.38;100.00;101992.38;4995156;28;20553;-81
2022/10/03 04:30:37;;;;;;;17.52;3.65;;;;;;;9.43;100.00;101991.44;4992023;28;20252;-81
2022/10/03 04:33:40;;;;;;;21.83;3.72;;;;;;;9.37;100.00;101990.63;4988906;28;20221;-81
2022/10/03 04:36:21;;;;;;;26.73;3.95;;;;;;;9.30;100.00;101997.88;4987370;28;20207;-81
2022/10/03 04:39:28;;;;;;;25.42;4.25;;;;;;;9.32;100.00;101998.72;5010823;28;20178;-82
2022/10/03 04:42:12;;;;;;;23.58;3.92;;;;;;;9.31;100.00;101988.91;4956911;28;20623;-81
2022/10/03 04:44:55;;;;;;;22.25;4.20;;;;;;;9.33;100.00;101994.25;4979186;28;20200;-81
2022/10/03 04:47:31;;;;;;;31.50;4.35;;;;;;;9.40;100.00;102006.63;4995005;28;20181;-81
2022/10/03 04:50:18;;;;;;;24.95;4.13;;;;;;;9.41;100.00;102000.38;4975261;28;20170;-81
2022/10/03 04:52:50;;;;;;;28.27;3.92;;;;;;;9.38;100.00;102003.09;4991764;28;20161;-81
2022/10/03 04:55:47;;;;;;;20.67;3.75;;;;;;;9.43;100.00;102010.16;4990413;28;20193;-81
2022/10/03 04:58:36;;;;;;;21.13;3.63;;;;;;;9.47;100.00;102003.84;5006848;28;20182;-81
2022/10/03 05:01:13;;;;;;;21.17;3.40;;;;;;;9.48;100.00;102002.94;4995380;28;20239;-81
2022/10/03 05:03:42;;;;;;;28.35;4.00;;;;;;;9.46;100.00;102007.41;4978480;28;20198;-81
2022/10/03 05:06:34;;;;;;;20.88;3.22;;;;;;;9.49;100.00;102012.75;4991393;28;20220;-81
2022/10/03 05:09:22;;;;;;;21.23;4.07;;;;;;;9.56;100.00;102004.63;4980013;28;20205;-82
2022/10/03 05:11:48;;;;;;;29.42;4.30;;;;;;;9.52;100.00;102008.25;4980880;28;20237;-81
2022/10/03 05:14:38;;;;;;;23.80;3.22;;;;;;;9.47;100.00;102011.88;4985764;28;20200;-81
2022/10/03 05:17:18;;;;;;;25.35;3.92;;;;;;;9.43;100.00;102007.47;4995078;28;20201;-81
2022/10/03 05:19:48;;;;;;;22.23;4.05;;;;;;;9.45;100.00;102013.69;4996070;28;20182;-81
2022/10/03 05:22:19;;;;;;;20.20;3.92;;;;;;;9.37;100.00;102009.38;4980646;28;20651;-81
2022/10/03 05:25:42;;;;;;;19.25;3.47;;;;;;;9.30;100.00;102026.41;4980746;28;20193;-81
2022/10/03 05:28:37;;;;;;;26.60;3.47;;;;;;;9.25;100.00;102015.78;4957107;28;20212;-82
2022/10/03 05:31:27;;;;;;;14.50;2.92;;;;;;;9.24;100.00;102027.38;4995452;28;20773;-81
2022/10/03 05:34:07;;;;;;;22.98;3.70;;;;;;;9.20;100.00;102026.50;4980317;28;20162;-81
2022/10/03 05:37:06;;;;;;;23.75;3.78;;;;;;;9.15;100.00;102035.50;4980132;28;20182;-82
2022/10/03 05:39:34;;;;;;;25.83;3.63;;;;;;;9.18;100.00;102031.03;4967543;28;20193;-81
2022/10/03 05:42:20;;;;;;;21.35;3.20;;;;;;;9.24;100.00;102030.03;4999488;28;20201;-81
2022/10/03 05:44:56;;;;;;;24.70;3.40;;;;;;;9.20;100.00;102031.84;4983206;28;20644;-81
2022/10/03 05:47:43;;;;;;;24.38;4.05;;;;;;;9.29;100.00;102033.53;4982359;28;20233;-80
2022/10/03 05:50:30;;;;;;;20.88;4.05;;;;;;;9.33;100.00;102029.91;4979939;28;20205;-81
2022/10/03 05:53:30;;;;;;;28.20;3.95;;;;;;;9.37;100.00;102020.94;4989365;28;20185;-81
2022/10/03 05:55:58;;;;;;;22.33;3.72;;;;;;;9.38;100.00;102028.06;4988974;28;20186;-80
2022/10/03 05:58:37;;;;;;;30.67;3.97;;;;;;;9.40;100.00;102030.69;4997622;28;20190;-81
2022/10/03 06:01:43;;;;;;;20.77;3.38;;;;;;;9.47;100.00;102027.06;4995510;28;20524;-81
2022/10/03 06:04:40;;;;;;;19.92;4.10;;;;;;;9.47;100.00;102035.09;4983097;28;20177;-81
2022/10/03 06:07:19;;;;;;;21.45;3.45;;;;;;;9.48;100.00;102045.75;4981220;28;20227;-81
2022/10/03 06:10:03;;;;;;;19.45;3.15;;;;;;;9.51;100.00;102054.63;4988871;28;20521;-81
2022/10/03 06:13:13;;;;;;;32.45;3.75;;;;;;;9.53;100.00;102047.47;4997088;28;20212;-81
2022/10/03 06:16:00;;;;;;;23.63;3.80;;;;;;;9.62;100.00;102047.31;4982330;28;20189;-81
2022/10/03 06:18:45;;;;;;;21.58;3.75;;;;;;;9.69;100.00;102049.03;4986973;28;20227;-81
2022/10/03 06:21:40;;;;;;;26.10;3.83;;;;;;;9.79;100.00;102061.34;4985828;28;20316;-81
2022/10/03 06:24:34;;;;;;;24.40;3.92;;;;;;;9.88;100.00;102055.88;5004252;28;20197;-81
2022/10/03 06:27:14;;;;;;;22.80;4.00;;;;;;;9.94;100.00;102064.72;4993347;28;20707;-81
2022/10/03 06:30:04;;;;;;;23.73;4.28;;;;;;;10.06;100.00;102069.88;5006476;28;20197;-81
2022/10/03 06:32:49;;;;;;;22.83;4.10;;;;;;;10.16;100.00;102062.56;4991285;28;20177;-81
2022/10/03 06:35:36;;;;;;;27.60;3.40;;;;;;;10.38;100.00;102063.09;4991414;28;20194;-80
2022/10/03 06:38:51;;;;;;;18.40;3.90;;;;;;;10.67;100.00;102070.59;4999193;28;20181;-81
2022/10/03 06:41:35;;;;;;;23.85;3.38;;;;;;;10.89;100.00;102063.94;4966860;28;20221;-81
2022/10/03 06:44:20;;;;;;;21.38;4.25;;;;;;;11.12;100.00;102071.50;4973438;28;20190;-80
2022/10/03 06:46:54;;;;;;;23.48;5.88;;;;;;;10.96;100.00;102072.75;4997983;28;20212;-80
2022/10/03 06:49:42;;;;;;;17.77;6.28;;;;;;;11.09;100.00;102074.25;5000795;28;20368;-80
2022/10/03 06:52:33;;;;;;;19.90;5.22;;;;;;;11.45;100.00;102073.50;4985493;28;20679;-80
2022/10/03 06:55:37;;;;;;;19.45;4.03;;;;;;;11.65;100.00;102070.38;4994848;28;20663;-80
2022/10/03 06:58:26;;;;;;;16.23;3.70;;;;;;;11.70;100.00;102066.69;4972614;28;20189;-81
2022/10/03 07:01:10;;;;;;;15.45;2.63;;;;;;;12.05;100.00;102072.19;4997729;28;20224;-81
2022/10/03 07:04:07;;;;;;;20.77;3.72;;;;;;;12.29;100.00;102062.63;5009442;28;20174;-81
2022/10/03 07:06:41;;;;;;;15.15;3.30;;;;;;;12.55;100.00;102059.22;4987130;28;20210;-81
2022/10/03 07:09:32;;;;;;;18.70;3.83;;;;;;;12.59;100.00;102071.66;4990407;28;20193;-81
2022/10/03 07:12:25;;;;;;;15.73;3.30;;;;;;;12.73;100.00;102061.44;4988958;28;20205;-81
2022/10/03 07:14:57;;;;;;;19.67;2.88;;;;;;;12.87;100.00;102073.63;4999479;28;20197;-81
2022/10/03 07:17:33;;;;;;;16.50;3.10;;;;;;;12.95;100.00;102069.78;5006132;28;20186;-81
2022/10/03 07:20:49;;;;;;;17.27;3.38;;;;;;;13.18;100.00;102071.81;4992892;28;20197;-81
2022/10/03 07:23:43;;;;;;;13.70;2.83;;;;;;;13.41;100.00;102067.59;4988945;28;20200;-80
2022/10/03 07:26:21;;;;;;;18.77;3.35;;;;;;;13.63;100.00;102072.31;4979209;28;20221;-81
2022/10/03 07:29:07;;;;;;;16.52;3.40;;;;;;;13.59;100.00;102085.88;4996544;28;20189;-80
2022/10/03 07:31:42;;;;;;;18.88;3.63;;;;;;;13.79;100.00;102078.97;4997616;28;20205;-83
2022/10/03 07:34:27;;;;;;;12.85;3.00;;;;;;;13.83;100.00;102075.25;4986890;28;20193;-80
2022/10/03 07:40:51;;;;;;;14.95;2.95;;;;;;;14.10;99.55;102080.69;4979686;28;20570;-82
2022/10/03 07:43:30;;;;;;;13.75;2.60;;;;;;;14.15;98.90;102092.22;4955079;28;20198;-82
2022/10/03 07:46:13;;;;;;;23.25;3.20;;;;;;;13.86;98.96;102099.41;4977776;28;20248;-82
2022/10/03 07:48:38;;;;;;;16.33;3.67;;;;;;;13.57;99.27;102098.50;4979556;28;20205;-82
2022/10/03 07:51:12;;;;;;;16.52;2.55;;;;;;;13.58;99.57;102097.56;4980381;28;20198;-82
2022/10/03 07:53:58;;;;;;;16.13;2.70;;;;;;;13.26;100.00;102109.25;4987007;28;20177;-82
2022/10/03 07:56:45;;;;;;;19.67;3.38;;;;;;;13.58;100.00;102096.69;4978110;28;20315;-82
2022/10/03 07:59:10;;;;;;;11.18;3.33;;;;;;;13.47;100.00;102110.50;4996062;28;20178;-82
2022/10/03 08:02:07;;;;;;;14.32;3.13;;;;;;;13.68;100.00;102098.16;4994779;28;20256;-82
2022/10/03 08:04:51;;;;;;;16.02;3.90;;;;;;;14.07;100.00;102105.06;4984425;28;20189;-82
2022/10/03 08:08:02;;;;;;;22.08;3.40;;;;;;;13.87;99.60;102109.25;4998327;28;20200;-81
2022/10/03 08:11:06;;;;;;;12.95;2.88;;;;;;;13.74;99.50;102111.44;4998131;28;20199;-82
2022/10/03 08:14:13;;;;;;;16.45;2.65;;;;;;;13.71;99.43;102129.50;4997942;28;20173;-82
2022/10/03 08:17:13;;;;;;;18.00;3.35;;;;;;;13.60;99.52;102116.41;4981761;28;20177;-82
2022/10/03 08:20:01;;;;;;;17.35;3.60;;;;;;;13.40;100.00;102116.97;4998373;28;20189;-82
2022/10/03 08:22:35;;;;;;;14.68;3.13;;;;;;;13.20;100.00;102120.19;4998031;28;20192;-82
2022/10/03 08:25:26;;;;;;;13.75;2.92;;;;;;;13.06;100.00;102115.22;4996901;28;20195;-81
2022/10/03 08:28:15;;;;;;;17.15;3.65;;;;;;;13.03;100.00;102115.31;4970375;28;20631;-82
2022/10/03 08:31:05;;;;;;;15.27;2.85;;;;;;;12.99;100.00;102110.94;4998864;28;20228;-81
2022/10/03 08:33:53;;;;;;;20.25;3.25;;;;;;;13.10;100.00;102114.22;4995127;28;20169;-83
2022/10/03 08:36:27;;;;;;;15.93;2.90;;;;;;;13.03;100.00;102119.78;4993869;28;20181;-80
2022/10/03 08:39:06;;;;;;;16.10;3.50;;;;;;;13.41;100.00;102120.56;4994479;28;20248;-81
2022/10/03 08:41:55;;;;;;;18.35;3.20;;;;;;;13.58;100.00;102121.81;4994838;28;20748;-81
2022/10/03 08:44:57;;;;;;;12.98;2.88;;;;;;;13.34;100.00;102123.44;4979563;28;20165;-80
2022/10/03 08:50:27;;;;;;;16.10;2.95;;;;;;;13.69;99.54;102116.09;5002176;22;20248;-48
2022/10/03 08:53:19;;;;;;;19.15;3.45;;;;;;;13.47;99.82;102131.13;5009734;28;20219;-43
2022/10/03 08:56:15;;;;;;;18.77;3.47;;;;;;;13.62;99.94;102132.47;5003494;28;20217;-49
2022/10/03 08:58:52;;;;;;;15.15;2.90;;;;;;;13.94;98.98;102124.28;5007840;28;20180;-43
2022/10/03 09:01:41;;;;;;;13.70;2.65;;;;;;;14.12;98.44;102130.03;4995785;28;20249;-48
2022/10/03 09:04:28;;;;;;;15.93;3.15;;;;;;;14.56;97.12;102108.81;5001554;28;20259;-48
2022/10/03 09:07:09;;;;;;;19.50;3.40;;;;;;;14.42;95.55;102125.44;4996450;28;20676;-49
2022/10/03 09:10:23;;;;;;;24.77;3.30;;;;;;;14.63;95.30;102124.75;4996477;28;20567;-50
2022/10/03 09:13:29;;;;;;;16.30;2.97;;;;;;;14.71;93.79;102132.56;4995656;28;20182;-47
2022/10/03 09:15:57;;;;;;;17.42;2.75;;;;;;;14.50;94.21;102126.06;4961460;28;20291;-50
2022/10/03 09:18:44;;;;;;;13.50;2.45;;;;;;;14.64;94.42;102128.31;5001284;28;20201;-49
2022/10/03 09:21:40;;;;;;;17.33;3.03;;;;;;;14.51;94.46;102127.81;5001759;28;20204;-47
2022/10/03 09:24:46;;;;;;;16.55;2.95;;;;;;;14.60;94.62;102121.28;4996341;28;20563;-50
2022/10/03 09:27:17;;;;;;;14.82;2.83;;;;;;;14.61;94.69;102139.22;5001074;28;20205;-51
2022/10/03 09:30:09;;;;;;;14.63;2.70;;;;;;;14.83;93.94;102129.44;4999496;28;20189;-51
2022/10/03 09:33:04;;;;;;;15.07;2.85;;;;;;;14.65;92.91;102122.00;4998256;28;20178;-46
2022/10/03 09:35:48;;;;;;;11.60;3.33;;;;;;;15.08;91.14;102128.56;4992309;28;20173;-45
2022/10/03 09:38:48;;;;;;;14.20;2.65;;;;;;;15.53;90.04;102130.50;4996295;28;20184;-43
2022/10/03 09:41:48;;;;;;;13.18;2.95;;;;;;;15.72;88.47;102130.72;4993754;28;20212;-46
2022/10/03 09:44:31;;;;;;;12.95;2.38;;;;;;;15.82;87.18;102121.28;4999497;28;20714;-48
2022/10/03 09:47:22;;;;;;;14.20;2.22;;;;;;;16.08;85.20;102115.78;4997528;28;20217;-49
2022/10/03 09:50:10;;;;;;;11.90;2.78;;;;;;;15.57;84.27;102124.03;4996360;28;20214;-50
2022/10/03 09:53:01;;;;;;;11.98;2.13;;;;;;;15.54;84.71;102125.97;5004506;28;20606;-49
2022/10/03 09:56:00;;;;;;;13.48;2.80;;;;;;;15.32;83.45;102126.78;4995655;28;20185;-45
2022/10/03 09:58:46;;;;;;;10.70;2.58;;;;;;;15.69;82.58;102138.00;4996991;28;20186;-45
2022/10/03 10:01:24;;;;;;;13.05;2.60;;;;;;;16.07;81.81;102128.44;4992168;28;20224;-48
2022/10/03 10:04:44;;;;;;;11.45;2.42;;;;;;;15.82;80.97;102121.28;4997698;28;20193;-50
2022/10/03 10:07:21;;;;;;;14.75;2.63;;;;;;;15.92;82.49;102123.63;4958410;28;20249;-46
2022/10/03 10:10:09;;;;;;;11.00;2.60;;;;;;;15.73;82.46;102126.19;4986644;28;20200;-47
2022/10/03 10:12:53;;;;;;;10.05;2.15;;;;;;;15.51;82.61;102131.50;4999395;28;20197;-48
2022/10/03 10:15:47;;;;;;;8.60;2.22;;;;;;;15.45;83.13;102133.47;4995772;28;20173;-52
2022/10/03 10:18:24;;;;;;;8.52;2.38;;;;;;;15.19;82.68;102137.16;4998647;28;20197;-49
2022/10/03 10:21:18;;;;;;;8.88;2.03;;;;;;;15.06;83.28;102129.56;4996903;28;20212;-50
2022/10/03 10:23:49;;;;;;;11.10;2.15;;;;;;;15.12;83.36;102130.22;5000414;28;20625;-50
2022/10/03 10:26:43;;;;;;;8.18;2.10;;;;;;;15.38;82.83;102131.09;4995683;28;20228;-49
2022/10/03 10:29:30;;;;;;;9.40;1.88;;;;;;;15.94;82.68;102125.34;4998305;28;20193;-44
2022/10/03 10:32:17;;;;;;;9.95;2.10;;;;;;;15.71;82.27;102120.84;4997912;28;20695;-45
2022/10/03 10:35:20;;;;;;;8.77;2.10;;;;;;;15.61;82.75;102114.88;4998739;28;20204;-48
2022/10/03 10:37:53;;;;;;;16.27;2.47;;;;;;;15.72;82.69;102116.31;4995440;28;20255;-44
2022/10/03 10:40:28;;;;;;;9.18;1.90;;;;;;;16.19;81.24;102116.22;4993607;28;20255;-48
2022/10/03 10:43:22;;;;;;;12.80;2.15;;;;;;;16.33;80.43;102110.22;4996264;28;20184;-44
2022/10/03 10:46:10;;;;;;;12.95;2.35;;;;;;;15.90;81.40;102112.88;4996200;28;20302;-44
2022/10/03 10:49:03;;;;;;;10.38;2.50;;;;;;;15.90;81.96;102110.19;5003778;28;20197;-45
2022/10/03 10:51:43;;;;;;;7.55;2.10;;;;;;;15.67;81.98;102105.63;4995137;28;20208;-45
2022/10/03 10:54:47;;;;;;;8.85;2.05;;;;;;;16.37;81.27;102093.81;4997855;28;20664;-49
2022/10/03 10:57:21;;;;;;;10.18;2.83;;;;;;;16.43;81.86;102084.56;4995539;28;20200;-50
2022/10/03 11:00:06;;;;;;;11.30;2.50;;;;;;;16.30;80.68;102095.03;4997301;28;20204;-44
2022/10/03 11:02:57;;;;;;;9.73;2.10;;;;;;;16.47;80.61;102097.88;4992978;28;20209;-47
2022/10/03 11:05:35;;;;;;;11.32;2.22;;;;;;;16.62;79.44;102087.38;4998846;28;20288;-44
2022/10/03 11:08:22;;;;;;;11.95;2.10;;;;;;;16.59;78.91;102084.78;4993988;28;20553;-45
2022/10/03 11:11:02;;;;;;;11.05;1.90;;;;;;;16.57;78.37;102101.06;4997487;28;20278;-51
2022/10/03 11:14:01;;;;;;;11.10;2.35;;;;;;;16.04;79.81;102105.09;4997094;28;20547;-47
2022/10/03 11:16:54;;;;;;;14.80;2.50;;;;;;;16.00;80.76;102108.84;4995008;28;20203;-47
2022/10/03 11:19:40;;;;;;;7.10;1.75;;;;;;;16.00;80.60;102103.44;4995967;28;20178;-45
2022/10/03 11:22:24;;;;;;;9.05;2.40;;;;;;;16.38;79.63;102105.53;4999028;28;20204;-49
2022/10/03 11:25:31;;;;;;;10.23;1.70;;;;;;;15.88;80.31;102100.38;5001353;28;20526;-50
2022/10/03 11:28:42;;;;;;;8.98;2.40;;;;;;;15.97;80.85;102108.13;5001228;28;20627;-47
2022/10/03 11:31:29;;;;;;;10.93;2.60;;;;;;;16.45;80.91;102099.78;5002420;28;20484;-46
2022/10/03 11:33:54;;;;;;;10.93;2.33;;;;;;;16.20;81.78;102099.03;5004193;28;20189;-48
2022/10/03 11:36:58;;;;;;;12.23;2.67;;;;;;;16.48;82.34;102094.22;4996482;28;20227;-46
2022/10/03 11:39:42;;;;;;;10.48;2.10;;;;;;;16.56;81.82;102083.09;4967313;28;20216;-46
2022/10/03 11:42:21;;;;;;;9.95;2.25;;;;;;;16.72;82.66;102102.22;4998044;28;20668;-44
2022/10/03 11:45:05;;;;;;;6.75;1.60;;;;;;;16.45;80.47;102088.97;5000225;28;20302;-45
2022/10/03 11:47:56;;;;;;;9.07;2.30;;;;;;;16.72;79.92;102101.38;5000326;28;20212;-50
2022/10/03 11:50:24;;;;;;;8.77;2.17;;;;;;;16.43;80.98;102088.13;4997121;28;20250;-47
2022/10/03 11:53:14;;;;;;;10.25;2.30;;;;;;;16.64;81.93;102096.31;4990863;28;20231;-46
2022/10/03 11:55:47;;;;;;;11.35;2.45;;;;;;;16.69;80.80;102087.00;4997398;28;20653;-47
2022/10/03 11:58:34;;;;;;;12.20;2.22;;;;;;;16.26;80.85;102099.66;4992619;28;20610;-45
2022/10/03 12:01:30;;;;;;;7.72;1.77;;;;;;;16.24;81.89;102092.56;4995532;28;20299;-43
2022/10/03 12:04:33;;;;;;;10.38;2.10;;;;;;;15.98;83.43;102086.44;5004954;28;20224;-48
2022/10/03 12:10:38;;;;;;;7.88;1.60;;;;;;;15.73;85.71;102099.16;4994843;28;20273;-46
2022/10/03 12:13:13;;;;;;;10.88;2.35;;;;;;;15.53;86.00;102094.50;4998536;28;20185;-45
2022/10/03 12:15:54;;;;;;;9.20;1.80;;;;;;;16.00;85.68;102097.16;4999715;28;20295;-46
2022/10/03 12:18:32;;;;;;;7.25;1.73;;;;;;;16.12;84.35;102095.81;4995712;28;20248;-45
2022/10/03 12:21:44;;;;;;;5.97;1.50;;;;;;;16.50;82.76;102099.56;5002854;28;20220;-46
2022/10/03 12:24:32;;;;;;;4.60;1.50;;;;;;;16.12;82.30;102099.38;4990941;28;20185;-45
2022/10/03 12:27:10;;;;;;;9.05;1.67;;;;;;;16.19;82.48;102100.00;5000919;28;20212;-47
2022/10/03 12:29:43;;;;;;;5.88;1.35;;;;;;;15.97;82.86;102110.81;5010356;28;20689;-45
2022/10/03 12:32:20;;;;;;;10.10;1.77;;;;;;;15.96;82.75;102109.94;5008585;28;20802;-46
2022/10/03 12:35:37;;;;;;;8.45;2.00;;;;;;;16.17;82.70;102099.19;5010263;28;20215;-45
2022/10/03 12:38:24;;;;;;;6.63;2.17;;;;;;;16.52;83.20;102103.09;4987827;28;20193;-45
2022/10/03 12:41:24;;;;;;;8.50;1.75;;;;;;;16.72;82.22;102098.66;4988207;28;20208;-43
2022/10/03 12:44:09;;;;;;;9.50;2.00;;;;;;;16.72;81.84;102107.66;4983628;28;20197;-45
2022/10/03 12:46:55;;;;;;;9.77;1.80;;;;;;;16.60;81.73;102100.94;5010245;28;20195;-43
2022/10/03 12:49:58;;;;;;;5.60;1.67;;;;;;;16.69;81.87;102111.38;5008802;28;20189;-44
2022/10/03 12:52:30;;;;;;;8.18;1.92;;;;;;;16.52;82.02;102121.16;5010145;28;20235;-45
2022/10/03 12:55:04;;;;;;;8.13;1.70;;;;;;;16.35;81.33;102111.91;5010086;28;20165;-44
2022/10/03 12:57:53;;;;;;;11.52;1.73;;;;;;;16.03;81.88;102119.56;5008228;28;20203;-43
2022/10/03 13:00:27;;;;;;;8.50;2.13;;;;;;;15.76;83.52;102121.53;5002182;28;20205;-45